FLX600H SBSV-SDIH
Flight info
| Callsign | FLX600H |
|---|---|
| Flight time | N/A |
| Altitude | 5500 |
| Route | REA DCT 1257S03821W 1301S03828W 1300S03831W 1307S03847W 1323S03854W 1629S03904W 1643S03906W 1952S04005W 2003S04011W 2011S04011W 2231S04204W 2257S04229W 2302S04300W 2305S04328W 2314S04407W 2318S04427W 2331S04504W 2331S04550W DCT |
| Aircraft | SR22/L-SG/SB2 |
Departure
| Time | 2026-05-04 22:25 |
|---|---|
| Airport | Deputado Luiz Eduardo Magalhães International Airport (SBSV) |
Arrival
| Time | N/A |
|---|---|
| Airport | Fazenda Irohy Airport (SDIH) |
| Time | Latitude | Longitude | Altitude | Speed | Heading |
|---|---|---|---|---|---|
| 2026-05-04 22:18 | -12.91035 | -38.34421 | 38 ft | 0 kts | 54° |
| 2026-05-04 22:19 | -12.91033 | -38.34417 | 38 ft | 0 kts | 81° |
| 2026-05-04 22:20 | -12.91034 | -38.34414 | 38 ft | 0 kts | 114° |
| 2026-05-04 22:21 | -12.91036 | -38.34409 | 38 ft | 1 kts | 102° |
| 2026-05-04 22:21 | -12.91036 | -38.34403 | 38 ft | 0 kts | 86° |
| 2026-05-04 22:21 | -12.91026 | -38.34372 | 38 ft | 7 kts | 56° |
| 2026-05-04 22:21 | -12.91005 | -38.34354 | 38 ft | 0 kts | 27° |
| 2026-05-04 22:22 | -12.91004 | -38.34353 | 38 ft | 1 kts | 27° |
| 2026-05-04 22:22 | -12.91003 | -38.34353 | 38 ft | 0 kts | 27° |
| 2026-05-04 22:22 | -12.91000 | -38.34355 | 38 ft | 3 kts | 319° |
| 2026-05-04 22:22 | -12.90978 | -38.34402 | 38 ft | 6 kts | 272° |
| 2026-05-04 22:23 | -12.90972 | -38.34404 | 37 ft | 3 kts | 347° |
| 2026-05-04 22:23 | -12.90933 | -38.34394 | 37 ft | 7 kts | 53° |
| 2026-05-04 22:23 | -12.90918 | -38.34362 | 38 ft | 1 kts | 45° |
| 2026-05-04 22:23 | -12.90897 | -38.34330 | 38 ft | 9 kts | 58° |
| 2026-05-04 22:24 | -12.90910 | -38.34275 | 38 ft | 9 kts | 141° |
| 2026-05-04 22:24 | -12.91121 | -38.34118 | 39 ft | 67 kts | 143° |
| 2026-05-04 22:24 | -12.91615 | -38.33753 | 97 ft | 98 kts | 146° |
| 2026-05-04 22:24 | -12.92304 | -38.33592 | 263 ft | 110 kts | 188° |
| 2026-05-04 22:25 | -12.93065 | -38.33873 | 427 ft | 120 kts | 200° |
| 2026-05-04 22:25 | -12.93834 | -38.34269 | 562 ft | 129 kts | 204° |
| 2026-05-04 22:25 | -12.94649 | -38.34741 | 702 ft | 136 kts | 206° |
| 2026-05-04 22:25 | -12.95468 | -38.35264 | 832 ft | 142 kts | 215° |
| 2026-05-04 22:26 | -12.96070 | -38.36097 | 961 ft | 149 kts | 234° |
| 2026-05-04 22:26 | -12.96586 | -38.37043 | 1095 ft | 152 kts | 236° |
| 2026-05-04 22:26 | -12.97095 | -38.38005 | 1191 ft | 157 kts | 236° |
| 2026-05-04 22:26 | -12.97630 | -38.39017 | 1204 ft | 165 kts | 237° |
| 2026-05-04 22:27 | -12.98183 | -38.40070 | 1204 ft | 171 kts | 237° |
| 2026-05-04 22:27 | -12.98755 | -38.41159 | 1204 ft | 175 kts | 237° |
| 2026-05-04 22:27 | -12.99341 | -38.42278 | 1200 ft | 178 kts | 237° |
| 2026-05-04 22:27 | -12.99933 | -38.43403 | 1200 ft | 179 kts | 237° |
| 2026-05-04 22:28 | -13.00522 | -38.44526 | 1200 ft | 180 kts | 238° |
| 2026-05-04 22:28 | -13.01123 | -38.45672 | 1201 ft | 181 kts | 237° |
| 2026-05-04 22:28 | -13.01560 | -38.46901 | 1193 ft | 187 kts | 263° |
| 2026-05-04 22:28 | -13.01511 | -38.48245 | 1210 ft | 189 kts | 272° |
| 2026-05-04 22:29 | -13.01382 | -38.49589 | 1203 ft | 190 kts | 272° |
| 2026-05-04 22:29 | -13.01247 | -38.50942 | 1205 ft | 190 kts | 272° |
| 2026-05-04 22:29 | -13.01116 | -38.52290 | 1201 ft | 190 kts | 272° |
| 2026-05-04 22:29 | -13.01194 | -38.53616 | 1253 ft | 182 kts | 250° |
| 2026-05-04 22:30 | -13.01617 | -38.54818 | 1377 ft | 175 kts | 244° |
| 2026-05-04 22:30 | -13.02063 | -38.55959 | 1487 ft | 173 kts | 243° |
| 2026-05-04 22:30 | -13.02522 | -38.57119 | 1508 ft | 177 kts | 243° |
| 2026-05-04 22:30 | -13.02988 | -38.58305 | 1516 ft | 180 kts | 243° |
| 2026-05-04 22:31 | -13.03461 | -38.59513 | 1514 ft | 183 kts | 243° |
| 2026-05-04 22:31 | -13.03934 | -38.60725 | 1514 ft | 184 kts | 243° |
| 2026-05-04 22:31 | -13.04410 | -38.61943 | 1515 ft | 186 kts | 244° |
| 2026-05-04 22:31 | -13.04896 | -38.63190 | 1519 ft | 187 kts | 243° |
| 2026-05-04 22:32 | -13.05379 | -38.64426 | 1522 ft | 187 kts | 244° |
| 2026-05-04 22:32 | -13.05866 | -38.65665 | 1521 ft | 187 kts | 242° |
| 2026-05-04 22:32 | -13.06473 | -38.66856 | 1522 ft | 186 kts | 236° |
| 2026-05-04 22:32 | -13.07105 | -38.68007 | 1522 ft | 186 kts | 236° |
| 2026-05-04 22:33 | -13.07739 | -38.69162 | 1521 ft | 186 kts | 236° |
| 2026-05-04 22:33 | -13.08373 | -38.70320 | 1521 ft | 186 kts | 236° |
| 2026-05-04 22:33 | -13.09011 | -38.71489 | 1524 ft | 185 kts | 236° |
| 2026-05-04 22:33 | -13.09646 | -38.72649 | 1522 ft | 186 kts | 236° |
| 2026-05-04 22:34 | -13.10275 | -38.73803 | 1523 ft | 186 kts | 236° |
| 2026-05-04 22:34 | -13.10911 | -38.74969 | 1524 ft | 186 kts | 236° |
| 2026-05-04 22:34 | -13.11541 | -38.76123 | 1527 ft | 186 kts | 236° |
| 2026-05-04 22:34 | -13.12174 | -38.77284 | 1526 ft | 187 kts | 236° |
| 2026-05-04 22:35 | -13.12828 | -38.78453 | 1521 ft | 185 kts | 230° |
| 2026-05-04 22:35 | -13.13814 | -38.79198 | 1634 ft | 171 kts | 202° |
| 2026-05-04 22:35 | -13.14855 | -38.79722 | 1824 ft | 162 kts | 200° |
| 2026-05-04 22:35 | -13.15870 | -38.80206 | 1989 ft | 157 kts | 199° |
| 2026-05-04 22:36 | -13.16887 | -38.80684 | 2027 ft | 162 kts | 199° |
| 2026-05-04 22:36 | -13.17935 | -38.81175 | 2029 ft | 167 kts | 199° |
| 2026-05-04 22:36 | -13.19007 | -38.81677 | 2029 ft | 170 kts | 199° |
| 2026-05-04 22:36 | -13.20098 | -38.82189 | 2028 ft | 172 kts | 200° |
| 2026-05-04 22:37 | -13.21197 | -38.82704 | 2027 ft | 173 kts | 199° |
| 2026-05-04 22:37 | -13.22300 | -38.83221 | 2026 ft | 174 kts | 199° |
| 2026-05-04 22:37 | -13.23401 | -38.83738 | 2025 ft | 174 kts | 200° |
| 2026-05-04 22:37 | -13.24516 | -38.84259 | 2025 ft | 174 kts | 199° |
| 2026-05-04 22:38 | -13.25624 | -38.84777 | 2026 ft | 175 kts | 200° |
| 2026-05-04 22:38 | -13.26751 | -38.85305 | 2027 ft | 175 kts | 200° |
| 2026-05-04 22:38 | -13.27865 | -38.85825 | 2026 ft | 175 kts | 200° |
| 2026-05-04 22:38 | -13.28972 | -38.86345 | 2025 ft | 175 kts | 199° |
| 2026-05-04 22:39 | -13.30099 | -38.86872 | 2025 ft | 175 kts | 200° |
| 2026-05-04 22:39 | -13.31213 | -38.87394 | 2024 ft | 175 kts | 199° |
| 2026-05-04 22:39 | -13.32330 | -38.87916 | 2026 ft | 175 kts | 200° |
| 2026-05-04 22:39 | -13.33444 | -38.88438 | 2026 ft | 175 kts | 199° |
| 2026-05-04 22:40 | -13.34551 | -38.88956 | 2025 ft | 175 kts | 200° |
| 2026-05-04 22:40 | -13.35686 | -38.89487 | 2024 ft | 175 kts | 199° |
| 2026-05-04 22:40 | -13.36800 | -38.90010 | 2025 ft | 175 kts | 199° |
| 2026-05-04 22:40 | -13.37908 | -38.90527 | 2027 ft | 175 kts | 200° |
| 2026-05-04 22:41 | -13.39053 | -38.90973 | 2014 ft | 172 kts | 185° |
| 2026-05-04 22:41 | -13.40238 | -38.91077 | 2028 ft | 170 kts | 179° |
| 2026-05-04 22:41 | -13.41419 | -38.91143 | 2025 ft | 170 kts | 179° |
| 2026-05-04 22:41 | -13.42611 | -38.91202 | 2024 ft | 169 kts | 179° |
| 2026-05-04 22:42 | -13.43802 | -38.91265 | 2025 ft | 169 kts | 179° |
| 2026-05-04 22:42 | -13.44988 | -38.91324 | 2027 ft | 169 kts | 179° |
| 2026-05-04 22:42 | -13.46172 | -38.91385 | 2028 ft | 169 kts | 179° |
| 2026-05-04 22:42 | -13.47362 | -38.91443 | 2025 ft | 170 kts | 179° |
| 2026-05-04 22:43 | -13.48554 | -38.91506 | 2026 ft | 170 kts | 179° |
| 2026-05-04 22:43 | -13.49731 | -38.91563 | 2024 ft | 170 kts | 179° |
| 2026-05-04 22:43 | -13.50938 | -38.91625 | 2025 ft | 170 kts | 179° |
| 2026-05-04 22:43 | -13.52124 | -38.91684 | 2024 ft | 170 kts | 179° |
| 2026-05-04 22:44 | -13.53304 | -38.91744 | 2023 ft | 170 kts | 179° |
| 2026-05-04 22:44 | -13.54501 | -38.91805 | 2024 ft | 169 kts | 179° |
| 2026-05-04 22:44 | -13.55681 | -38.91864 | 2024 ft | 169 kts | 179° |
| 2026-05-04 22:44 | -13.56884 | -38.91924 | 2022 ft | 170 kts | 179° |
| 2026-05-04 22:45 | -13.58059 | -38.91985 | 2024 ft | 169 kts | 179° |
| 2026-05-04 22:45 | -13.60442 | -38.92105 | 2022 ft | 169 kts | 179° |
| 2026-05-04 22:45 | -13.61631 | -38.92166 | 2027 ft | 169 kts | 179° |
| 2026-05-04 22:46 | -13.62819 | -38.92225 | 2023 ft | 169 kts | 179° |
| 2026-05-04 22:46 | -13.64012 | -38.92285 | 2028 ft | 170 kts | 179° |
| 2026-05-04 22:46 | -13.65194 | -38.92346 | 2022 ft | 170 kts | 179° |
| 2026-05-04 22:46 | -13.66399 | -38.92408 | 2025 ft | 170 kts | 179° |
| 2026-05-04 22:47 | -13.67586 | -38.92467 | 2022 ft | 169 kts | 179° |
| 2026-05-04 22:47 | -13.68775 | -38.92527 | 2023 ft | 169 kts | 179° |
| 2026-05-04 22:47 | -13.69957 | -38.92587 | 2026 ft | 170 kts | 179° |
| 2026-05-04 22:47 | -13.71153 | -38.92648 | 2025 ft | 170 kts | 179° |
| 2026-05-04 22:48 | -13.72334 | -38.92707 | 2024 ft | 169 kts | 179° |
| 2026-05-04 22:48 | -13.73534 | -38.92767 | 2023 ft | 169 kts | 179° |
| 2026-05-04 22:48 | -13.74704 | -38.92828 | 2024 ft | 169 kts | 179° |
| 2026-05-04 22:48 | -13.75891 | -38.92888 | 2023 ft | 169 kts | 179° |
| 2026-05-04 22:49 | -13.77079 | -38.92948 | 2024 ft | 169 kts | 179° |
| 2026-05-04 22:49 | -13.78259 | -38.93008 | 2023 ft | 169 kts | 179° |
| 2026-05-04 22:49 | -13.79448 | -38.93069 | 2023 ft | 169 kts | 179° |
| 2026-05-04 22:49 | -13.80634 | -38.93128 | 2022 ft | 169 kts | 179° |
| 2026-05-04 22:50 | -13.81827 | -38.93189 | 2040 ft | 170 kts | 179° |
| 2026-05-04 22:50 | -13.83019 | -38.93248 | 2030 ft | 170 kts | 179° |
| 2026-05-04 22:50 | -13.84173 | -38.93307 | 2184 ft | 161 kts | 179° |
| 2026-05-04 22:50 | -13.85272 | -38.93364 | 2370 ft | 154 kts | 179° |
| 2026-05-04 22:51 | -13.86331 | -38.93417 | 2555 ft | 148 kts | 179° |
| 2026-05-04 22:51 | -13.87355 | -38.93467 | 2738 ft | 144 kts | 179° |
| 2026-05-04 22:51 | -13.88360 | -38.93517 | 2923 ft | 141 kts | 179° |
| 2026-05-04 22:51 | -13.89338 | -38.93567 | 3108 ft | 138 kts | 179° |
| 2026-05-04 22:52 | -13.90301 | -38.93615 | 3295 ft | 136 kts | 178° |
| 2026-05-04 22:52 | -13.91248 | -38.93663 | 3479 ft | 135 kts | 178° |
| 2026-05-04 22:52 | -13.92189 | -38.93711 | 3665 ft | 134 kts | 178° |
| 2026-05-04 22:52 | -13.93112 | -38.93756 | 3850 ft | 133 kts | 178° |
| 2026-05-04 22:53 | -13.94041 | -38.93802 | 4040 ft | 131 kts | 178° |
| 2026-05-04 22:53 | -13.94954 | -38.93847 | 4226 ft | 131 kts | 178° |
| 2026-05-04 22:53 | -13.95866 | -38.93893 | 4416 ft | 130 kts | 178° |
| 2026-05-04 22:53 | -13.96773 | -38.93940 | 4601 ft | 129 kts | 178° |
| 2026-05-04 22:54 | -13.97671 | -38.93985 | 4786 ft | 128 kts | 178° |
| 2026-05-04 22:54 | -13.98563 | -38.94029 | 4972 ft | 127 kts | 178° |
| 2026-05-04 22:54 | -13.99443 | -38.94074 | 5158 ft | 126 kts | 178° |
| 2026-05-04 22:54 | -14.00324 | -38.94118 | 5347 ft | 125 kts | 178° |
| 2026-05-04 22:55 | -14.01197 | -38.94162 | 5505 ft | 127 kts | 178° |
| 2026-05-04 22:55 | -14.02133 | -38.94208 | 5530 ft | 138 kts | 178° |
| 2026-05-04 22:55 | -14.03128 | -38.94257 | 5535 ft | 147 kts | 179° |
| 2026-05-04 22:55 | -14.04186 | -38.94311 | 5533 ft | 154 kts | 179° |
| 2026-05-04 22:56 | -14.05281 | -38.94368 | 5527 ft | 158 kts | 179° |
| 2026-05-04 22:56 | -14.06392 | -38.94425 | 5525 ft | 161 kts | 179° |
| 2026-05-04 22:56 | -14.07531 | -38.94485 | 5521 ft | 163 kts | 179° |
| 2026-05-04 22:56 | -14.08666 | -38.94544 | 5527 ft | 164 kts | 179° |
| 2026-05-04 22:57 | -14.09819 | -38.94605 | 5526 ft | 165 kts | 179° |
| 2026-05-04 22:57 | -14.10980 | -38.94664 | 5529 ft | 165 kts | 179° |
| 2026-05-04 22:57 | -14.12132 | -38.94723 | 5531 ft | 166 kts | 179° |
| 2026-05-04 22:57 | -14.13292 | -38.94783 | 5529 ft | 166 kts | 179° |
| 2026-05-04 22:58 | -14.14460 | -38.94842 | 5528 ft | 166 kts | 179° |
| 2026-05-04 22:58 | -14.15620 | -38.94901 | 5524 ft | 167 kts | 179° |
| 2026-05-04 22:58 | -14.16789 | -38.94960 | 5529 ft | 167 kts | 179° |
| 2026-05-04 22:58 | -14.17968 | -38.95020 | 5530 ft | 167 kts | 179° |
| 2026-05-04 22:59 | -14.19137 | -38.95080 | 5531 ft | 167 kts | 179° |
| 2026-05-04 22:59 | -14.20305 | -38.95139 | 5530 ft | 167 kts | 179° |
| 2026-05-04 22:59 | -14.21471 | -38.95198 | 5533 ft | 168 kts | 179° |
| 2026-05-04 22:59 | -14.22651 | -38.95259 | 5531 ft | 168 kts | 179° |
| 2026-05-04 23:00 | -14.23822 | -38.95319 | 5535 ft | 168 kts | 179° |
| 2026-05-04 23:00 | -14.24995 | -38.95378 | 5537 ft | 168 kts | 179° |
| 2026-05-04 23:00 | -14.26181 | -38.95438 | 5534 ft | 168 kts | 179° |
| 2026-05-04 23:00 | -14.27360 | -38.95498 | 5531 ft | 168 kts | 179° |
| 2026-05-04 23:01 | -14.28524 | -38.95558 | 5532 ft | 168 kts | 179° |
| 2026-05-04 23:01 | -14.29710 | -38.95618 | 5533 ft | 168 kts | 179° |
| 2026-05-04 23:01 | -14.30874 | -38.95678 | 5534 ft | 167 kts | 179° |
| 2026-05-04 23:01 | -14.32041 | -38.95737 | 5532 ft | 167 kts | 179° |
| 2026-05-04 23:02 | -14.33215 | -38.95796 | 5532 ft | 167 kts | 179° |
| 2026-05-04 23:02 | -14.34388 | -38.95856 | 5533 ft | 168 kts | 179° |
| 2026-05-04 23:02 | -14.35571 | -38.95917 | 5536 ft | 168 kts | 179° |
| 2026-05-04 23:02 | -14.36739 | -38.95977 | 5538 ft | 168 kts | 179° |
| 2026-05-04 23:03 | -14.37923 | -38.96037 | 5540 ft | 168 kts | 179° |
| 2026-05-04 23:03 | -14.39085 | -38.96095 | 5541 ft | 168 kts | 179° |
| 2026-05-04 23:03 | -14.40270 | -38.96157 | 5542 ft | 168 kts | 179° |
| 2026-05-04 23:03 | -14.41439 | -38.96215 | 5542 ft | 168 kts | 180° |
| 2026-05-04 23:04 | -14.42609 | -38.96275 | 5546 ft | 168 kts | 179° |
| 2026-05-04 23:04 | -14.43795 | -38.96336 | 5542 ft | 168 kts | 179° |
| 2026-05-04 23:04 | -14.44966 | -38.96395 | 5540 ft | 168 kts | 179° |
| 2026-05-04 23:04 | -14.46143 | -38.96455 | 5535 ft | 168 kts | 179° |
| 2026-05-04 23:05 | -14.47304 | -38.96515 | 5538 ft | 167 kts | 179° |
| 2026-05-04 23:05 | -14.48475 | -38.96575 | 5538 ft | 167 kts | 179° |
| 2026-05-04 23:05 | -14.49649 | -38.96634 | 5538 ft | 167 kts | 179° |
| 2026-05-04 23:05 | -14.50815 | -38.96693 | 5539 ft | 167 kts | 179° |
| 2026-05-04 23:06 | -14.51982 | -38.96753 | 5537 ft | 167 kts | 179° |
| 2026-05-04 23:06 | -14.53154 | -38.96812 | 5542 ft | 167 kts | 179° |
| 2026-05-04 23:06 | -14.54330 | -38.96873 | 5542 ft | 168 kts | 179° |
| 2026-05-04 23:06 | -14.55503 | -38.96933 | 5542 ft | 168 kts | 179° |
| 2026-05-04 23:07 | -14.56664 | -38.96991 | 5544 ft | 167 kts | 179° |
| 2026-05-04 23:07 | -14.57842 | -38.97052 | 5544 ft | 167 kts | 179° |
| 2026-05-04 23:07 | -14.59003 | -38.97112 | 5548 ft | 167 kts | 179° |
| 2026-05-04 23:07 | -14.60174 | -38.97171 | 5542 ft | 166 kts | 179° |
| 2026-05-04 23:08 | -14.61336 | -38.97231 | 5551 ft | 166 kts | 179° |
| 2026-05-04 23:08 | -14.62508 | -38.97290 | 5542 ft | 167 kts | 179° |
| 2026-05-04 23:08 | -14.63671 | -38.97349 | 5548 ft | 167 kts | 179° |
| 2026-05-04 23:08 | -14.64837 | -38.97409 | 5542 ft | 167 kts | 179° |
| 2026-05-04 23:09 | -14.66014 | -38.97470 | 5542 ft | 167 kts | 179° |
| 2026-05-04 23:09 | -14.67177 | -38.97528 | 5548 ft | 167 kts | 179° |
| 2026-05-04 23:09 | -14.68351 | -38.97589 | 5549 ft | 167 kts | 179° |
| 2026-05-04 23:09 | -14.69518 | -38.97649 | 5541 ft | 167 kts | 179° |
| 2026-05-04 23:10 | -14.70685 | -38.97709 | 5551 ft | 166 kts | 179° |
| 2026-05-04 23:10 | -14.71849 | -38.97767 | 5555 ft | 167 kts | 179° |
| 2026-05-04 23:10 | -14.73015 | -38.97826 | 5547 ft | 167 kts | 179° |
| 2026-05-04 23:10 | -14.74176 | -38.97885 | 5548 ft | 167 kts | 179° |
| 2026-05-04 23:11 | -14.75351 | -38.97946 | 5552 ft | 167 kts | 179° |
| 2026-05-04 23:11 | -14.76518 | -38.98006 | 5552 ft | 167 kts | 179° |
| 2026-05-04 23:11 | -14.77688 | -38.98066 | 5554 ft | 167 kts | 179° |
| 2026-05-04 23:11 | -14.78855 | -38.98125 | 5550 ft | 167 kts | 179° |
| 2026-05-04 23:12 | -14.80039 | -38.98186 | 5551 ft | 167 kts | 179° |
| 2026-05-04 23:12 | -14.81203 | -38.98247 | 5549 ft | 168 kts | 179° |
| 2026-05-04 23:12 | -14.82384 | -38.98306 | 5554 ft | 167 kts | 179° |
| 2026-05-04 23:12 | -14.83554 | -38.98365 | 5557 ft | 168 kts | 179° |
| 2026-05-04 23:13 | -14.84726 | -38.98426 | 5553 ft | 168 kts | 179° |
| 2026-05-04 23:13 | -14.85898 | -38.98486 | 5552 ft | 167 kts | 179° |
| 2026-05-04 23:13 | -14.87063 | -38.98545 | 5552 ft | 168 kts | 179° |
| 2026-05-04 23:13 | -14.88235 | -38.98607 | 5553 ft | 167 kts | 179° |
| 2026-05-04 23:14 | -14.89420 | -38.98666 | 5553 ft | 168 kts | 180° |
| 2026-05-04 23:14 | -14.90593 | -38.98726 | 5547 ft | 168 kts | 179° |
| 2026-05-04 23:14 | -14.91763 | -38.98787 | 5551 ft | 168 kts | 179° |
| 2026-05-04 23:14 | -14.92939 | -38.98846 | 5561 ft | 168 kts | 179° |
| 2026-05-04 23:15 | -14.94113 | -38.98906 | 5563 ft | 169 kts | 179° |
| 2026-05-04 23:15 | -14.95303 | -38.98967 | 5560 ft | 169 kts | 179° |
| 2026-05-04 23:15 | -14.96486 | -38.99028 | 5567 ft | 169 kts | 179° |
| 2026-05-04 23:15 | -14.97665 | -38.99088 | 5556 ft | 169 kts | 179° |
| 2026-05-04 23:16 | -14.98844 | -38.99149 | 5562 ft | 168 kts | 179° |
| 2026-05-04 23:16 | -15.00017 | -38.99208 | 5566 ft | 169 kts | 180° |
| 2026-05-04 23:16 | -15.01199 | -38.99269 | 5564 ft | 169 kts | 179° |
| 2026-05-04 23:16 | -15.02381 | -38.99329 | 5565 ft | 169 kts | 180° |
| 2026-05-04 23:17 | -15.03572 | -38.99390 | 5566 ft | 169 kts | 180° |
| 2026-05-04 23:17 | -15.04765 | -38.99452 | 5559 ft | 169 kts | 179° |
| 2026-05-04 23:17 | -15.05952 | -38.99513 | 5560 ft | 169 kts | 179° |
| 2026-05-04 23:17 | -15.07127 | -38.99574 | 5562 ft | 169 kts | 179° |
| 2026-05-04 23:18 | -15.08309 | -38.99634 | 5564 ft | 169 kts | 179° |
| 2026-05-04 23:18 | -15.09496 | -38.99695 | 5567 ft | 170 kts | 179° |
| 2026-05-04 23:18 | -15.10682 | -38.99756 | 5569 ft | 170 kts | 179° |
| 2026-05-04 23:18 | -15.11890 | -38.99817 | 5569 ft | 171 kts | 179° |
| 2026-05-04 23:19 | -15.13083 | -38.99878 | 5570 ft | 171 kts | 179° |
| 2026-05-04 23:19 | -15.14272 | -38.99939 | 5567 ft | 170 kts | 179° |
| 2026-05-04 23:19 | -15.15464 | -39.00001 | 5566 ft | 170 kts | 179° |
| 2026-05-04 23:19 | -15.16654 | -39.00061 | 5566 ft | 170 kts | 180° |
| 2026-05-04 23:20 | -15.17841 | -39.00123 | 5564 ft | 170 kts | 179° |
| 2026-05-04 23:20 | -15.19025 | -39.00185 | 5565 ft | 170 kts | 179° |
| 2026-05-04 23:20 | -15.20207 | -39.00244 | 5566 ft | 170 kts | 179° |
| 2026-05-04 23:20 | -15.21405 | -39.00307 | 5567 ft | 169 kts | 179° |
| 2026-05-04 23:21 | -15.22594 | -39.00368 | 5565 ft | 170 kts | 179° |
| 2026-05-04 23:21 | -15.23780 | -39.00429 | 5568 ft | 169 kts | 179° |
| 2026-05-04 23:21 | -15.24963 | -39.00489 | 5568 ft | 169 kts | 179° |
| 2026-05-04 23:21 | -15.26150 | -39.00550 | 5569 ft | 170 kts | 179° |
| 2026-05-04 23:22 | -15.27342 | -39.00611 | 5569 ft | 170 kts | 179° |
| 2026-05-04 23:22 | -15.28529 | -39.00671 | 5567 ft | 171 kts | 179° |
| 2026-05-04 23:22 | -15.29718 | -39.00733 | 5563 ft | 171 kts | 179° |
| 2026-05-04 23:22 | -15.30912 | -39.00794 | 5565 ft | 170 kts | 179° |
| 2026-05-04 23:23 | -15.32099 | -39.00854 | 5566 ft | 170 kts | 179° |
| 2026-05-04 23:23 | -15.33294 | -39.00915 | 5567 ft | 170 kts | 179° |
| 2026-05-04 23:23 | -15.34488 | -39.00977 | 5567 ft | 170 kts | 179° |
| 2026-05-04 23:23 | -15.35675 | -39.01039 | 5566 ft | 170 kts | 179° |
| 2026-05-04 23:24 | -15.36858 | -39.01100 | 5567 ft | 170 kts | 179° |
| 2026-05-04 23:24 | -15.38046 | -39.01162 | 5568 ft | 170 kts | 179° |
| 2026-05-04 23:24 | -15.39235 | -39.01223 | 5566 ft | 169 kts | 179° |
| 2026-05-04 23:24 | -15.40421 | -39.01283 | 5566 ft | 170 kts | 179° |
| 2026-05-04 23:25 | -15.41606 | -39.01344 | 5565 ft | 169 kts | 179° |
| 2026-05-04 23:25 | -15.42788 | -39.01405 | 5568 ft | 170 kts | 179° |
| 2026-05-04 23:25 | -15.43974 | -39.01466 | 5566 ft | 170 kts | 179° |
| 2026-05-04 23:25 | -15.45155 | -39.01526 | 5567 ft | 170 kts | 179° |
| 2026-05-04 23:26 | -15.46352 | -39.01587 | 5567 ft | 170 kts | 179° |
| 2026-05-04 23:26 | -15.47523 | -39.01647 | 5569 ft | 170 kts | 179° |
| 2026-05-04 23:26 | -15.48720 | -39.01709 | 5566 ft | 170 kts | 179° |
| 2026-05-04 23:26 | -15.49912 | -39.01772 | 5568 ft | 170 kts | 179° |
| 2026-05-04 23:27 | -15.51096 | -39.01833 | 5567 ft | 170 kts | 179° |
| 2026-05-04 23:27 | -15.52284 | -39.01895 | 5568 ft | 169 kts | 179° |
| 2026-05-04 23:27 | -15.53471 | -39.01956 | 5568 ft | 169 kts | 179° |
| 2026-05-04 23:27 | -15.54647 | -39.02015 | 5567 ft | 170 kts | 179° |
| 2026-05-04 23:28 | -15.55842 | -39.02077 | 5569 ft | 169 kts | 179° |
| 2026-05-04 23:28 | -15.57025 | -39.02138 | 5569 ft | 169 kts | 179° |
| 2026-05-04 23:28 | -15.58210 | -39.02198 | 5565 ft | 169 kts | 179° |
| 2026-05-04 23:28 | -15.59398 | -39.02260 | 5565 ft | 169 kts | 179° |
| 2026-05-04 23:29 | -15.60570 | -39.02319 | 5567 ft | 169 kts | 179° |
| 2026-05-04 23:29 | -15.61753 | -39.02380 | 5568 ft | 169 kts | 179° |
| 2026-05-04 23:29 | -15.62938 | -39.02441 | 5570 ft | 170 kts | 179° |
| 2026-05-04 23:29 | -15.64126 | -39.02504 | 5570 ft | 170 kts | 179° |
| 2026-05-04 23:30 | -15.65319 | -39.02565 | 5569 ft | 170 kts | 179° |
| 2026-05-04 23:30 | -15.66501 | -39.02627 | 5570 ft | 170 kts | 179° |
| 2026-05-04 23:30 | -15.67698 | -39.02688 | 5570 ft | 170 kts | 179° |
| 2026-05-04 23:30 | -15.68884 | -39.02749 | 5569 ft | 170 kts | 179° |
| 2026-05-04 23:31 | -15.70075 | -39.02810 | 5567 ft | 170 kts | 179° |
| 2026-05-04 23:31 | -15.71265 | -39.02873 | 5568 ft | 170 kts | 179° |
| 2026-05-04 23:31 | -15.72446 | -39.02934 | 5570 ft | 169 kts | 179° |
| 2026-05-04 23:31 | -15.73627 | -39.02994 | 5571 ft | 169 kts | 179° |
| 2026-05-04 23:32 | -15.74816 | -39.03055 | 5571 ft | 169 kts | 179° |
| 2026-05-04 23:32 | -15.75995 | -39.03115 | 5572 ft | 169 kts | 179° |
| 2026-05-04 23:32 | -15.77182 | -39.03177 | 5569 ft | 169 kts | 179° |
| 2026-05-04 23:32 | -15.78367 | -39.03238 | 5570 ft | 169 kts | 179° |
| 2026-05-04 23:33 | -15.79543 | -39.03299 | 5570 ft | 169 kts | 179° |
| 2026-05-04 23:33 | -15.80735 | -39.03361 | 5572 ft | 170 kts | 179° |
| 2026-05-04 23:33 | -15.81929 | -39.03422 | 5570 ft | 170 kts | 179° |
| 2026-05-04 23:33 | -15.83110 | -39.03482 | 5570 ft | 170 kts | 179° |
| 2026-05-04 23:34 | -15.84306 | -39.03544 | 5565 ft | 171 kts | 179° |
| 2026-05-04 23:34 | -15.85500 | -39.03607 | 5569 ft | 170 kts | 179° |
| 2026-05-04 23:34 | -15.86701 | -39.03669 | 5568 ft | 170 kts | 179° |
| 2026-05-04 23:34 | -15.87896 | -39.03730 | 5568 ft | 170 kts | 179° |
| 2026-05-04 23:35 | -15.89080 | -39.03791 | 5569 ft | 170 kts | 179° |
| 2026-05-04 23:35 | -15.90272 | -39.03853 | 5568 ft | 170 kts | 179° |
| 2026-05-04 23:35 | -15.91459 | -39.03914 | 5568 ft | 169 kts | 179° |
| 2026-05-04 23:35 | -15.92643 | -39.03976 | 5568 ft | 169 kts | 179° |
| 2026-05-04 23:36 | -15.93819 | -39.04037 | 5570 ft | 169 kts | 179° |
| 2026-05-04 23:36 | -15.94998 | -39.04099 | 5569 ft | 169 kts | 179° |
| 2026-05-04 23:36 | -15.96181 | -39.04159 | 5569 ft | 169 kts | 179° |
| 2026-05-04 23:36 | -15.97372 | -39.04220 | 5569 ft | 169 kts | 179° |
| 2026-05-04 23:37 | -15.98542 | -39.04281 | 5569 ft | 169 kts | 179° |
| 2026-05-04 23:37 | -15.99724 | -39.04342 | 5571 ft | 169 kts | 179° |
| 2026-05-04 23:37 | -16.00919 | -39.04404 | 5567 ft | 170 kts | 179° |
| 2026-05-04 23:37 | -16.02104 | -39.04465 | 5569 ft | 170 kts | 179° |
| 2026-05-04 23:38 | -16.03286 | -39.04526 | 5570 ft | 170 kts | 179° |
| 2026-05-04 23:38 | -16.04472 | -39.04589 | 5572 ft | 170 kts | 179° |
| 2026-05-04 23:38 | -16.05669 | -39.04649 | 5572 ft | 170 kts | 179° |
| 2026-05-04 23:38 | -16.06849 | -39.04711 | 5574 ft | 170 kts | 179° |
| 2026-05-04 23:39 | -16.08028 | -39.04772 | 5570 ft | 170 kts | 179° |
| 2026-05-04 23:39 | -16.09223 | -39.04834 | 5570 ft | 169 kts | 179° |
| 2026-05-04 23:39 | -16.10396 | -39.04894 | 5566 ft | 169 kts | 179° |
| 2026-05-04 23:39 | -16.11577 | -39.04956 | 5573 ft | 168 kts | 179° |
| 2026-05-04 23:40 | -16.12767 | -39.05017 | 5575 ft | 169 kts | 179° |
| 2026-05-04 23:40 | -16.13938 | -39.05078 | 5575 ft | 169 kts | 179° |
| 2026-05-04 23:40 | -16.15124 | -39.05139 | 5578 ft | 169 kts | 178° |
| 2026-05-04 23:40 | -16.16317 | -39.05202 | 5578 ft | 170 kts | 179° |
| 2026-05-04 23:41 | -16.17500 | -39.05262 | 5580 ft | 170 kts | 179° |
| 2026-05-04 23:41 | -16.18693 | -39.05324 | 5578 ft | 170 kts | 178° |
| 2026-05-04 23:41 | -16.19880 | -39.05385 | 5580 ft | 170 kts | 179° |
| 2026-05-04 23:41 | -16.21070 | -39.05447 | 5579 ft | 170 kts | 179° |
| 2026-05-04 23:42 | -16.22264 | -39.05509 | 5578 ft | 170 kts | 179° |
| 2026-05-04 23:42 | -16.23448 | -39.05570 | 5579 ft | 170 kts | 179° |
| 2026-05-04 23:42 | -16.24646 | -39.05634 | 5578 ft | 170 kts | 179° |
| 2026-05-04 23:42 | -16.25830 | -39.05694 | 5579 ft | 169 kts | 179° |
| 2026-05-04 23:43 | -16.27010 | -39.05756 | 5581 ft | 169 kts | 179° |
| 2026-05-04 23:43 | -16.28186 | -39.05817 | 5587 ft | 169 kts | 178° |
| 2026-05-04 23:43 | -16.29370 | -39.05879 | 5585 ft | 169 kts | 178° |
| 2026-05-04 23:43 | -16.30548 | -39.05940 | 5584 ft | 169 kts | 179° |
| 2026-05-04 23:44 | -16.31745 | -39.06001 | 5589 ft | 169 kts | 178° |
| 2026-05-04 23:44 | -16.32919 | -39.06063 | 5588 ft | 170 kts | 178° |
| 2026-05-04 23:44 | -16.34111 | -39.06124 | 5589 ft | 170 kts | 178° |
| 2026-05-04 23:44 | -16.35293 | -39.06186 | 5589 ft | 170 kts | 178° |
| 2026-05-04 23:45 | -16.36494 | -39.06249 | 5589 ft | 170 kts | 179° |
| 2026-05-04 23:45 | -16.37677 | -39.06309 | 5589 ft | 171 kts | 178° |
| 2026-05-04 23:45 | -16.38868 | -39.06370 | 5587 ft | 171 kts | 178° |
| 2026-05-04 23:45 | -16.40067 | -39.06433 | 5589 ft | 171 kts | 178° |
| 2026-05-04 23:46 | -16.41259 | -39.06496 | 5585 ft | 171 kts | 178° |
| 2026-05-04 23:46 | -16.42448 | -39.06558 | 5584 ft | 170 kts | 178° |
| 2026-05-04 23:46 | -16.43644 | -39.06620 | 5587 ft | 170 kts | 178° |
| 2026-05-04 23:46 | -16.44829 | -39.06681 | 5587 ft | 170 kts | 178° |
| 2026-05-04 23:47 | -16.46013 | -39.06744 | 5587 ft | 169 kts | 178° |
| 2026-05-04 23:47 | -16.47193 | -39.06804 | 5590 ft | 169 kts | 178° |
| 2026-05-04 23:47 | -16.48379 | -39.06866 | 5593 ft | 169 kts | 178° |
| 2026-05-04 23:47 | -16.49575 | -39.06991 | 5593 ft | 171 kts | 184° |
| 2026-05-04 23:48 | -16.50744 | -39.07196 | 5596 ft | 171 kts | 185° |
| 2026-05-04 23:48 | -16.51925 | -39.07408 | 5596 ft | 172 kts | 185° |
| 2026-05-04 23:48 | -16.53118 | -39.07623 | 5595 ft | 172 kts | 185° |
| 2026-05-04 23:48 | -16.54303 | -39.07837 | 5595 ft | 172 kts | 185° |
| 2026-05-04 23:49 | -16.55473 | -39.08046 | 5594 ft | 172 kts | 185° |
| 2026-05-04 23:49 | -16.56669 | -39.08261 | 5596 ft | 172 kts | 185° |
| 2026-05-04 23:49 | -16.57849 | -39.08474 | 5595 ft | 172 kts | 185° |
| 2026-05-04 23:49 | -16.59040 | -39.08688 | 5591 ft | 172 kts | 185° |
| 2026-05-04 23:50 | -16.60214 | -39.08919 | 5595 ft | 172 kts | 186° |
| 2026-05-04 23:50 | -16.61399 | -39.09155 | 5594 ft | 172 kts | 186° |
| 2026-05-04 23:50 | -16.62576 | -39.09389 | 5594 ft | 172 kts | 186° |
| 2026-05-04 23:50 | -16.63756 | -39.09624 | 5592 ft | 172 kts | 186° |
| 2026-05-04 23:51 | -16.64947 | -39.09862 | 5505 ft | 175 kts | 186° |
| 2026-05-04 23:51 | -16.66148 | -39.10099 | 5289 ft | 175 kts | 186° |
| 2026-05-04 23:51 | -16.67350 | -39.10340 | 5168 ft | 172 kts | 186° |
| 2026-05-04 23:51 | -16.68497 | -39.10571 | 5309 ft | 164 kts | 186° |
| 2026-05-04 23:52 | -16.69603 | -39.10792 | 5446 ft | 159 kts | 185° |
| 2026-05-04 23:52 | -16.70679 | -39.11005 | 5569 ft | 156 kts | 185° |
| 2026-05-04 23:52 | -16.71777 | -39.11223 | 5594 ft | 160 kts | 185° |
| 2026-05-04 23:52 | -16.72880 | -39.11466 | 5595 ft | 166 kts | 191° |
| 2026-05-04 23:53 | -16.73989 | -39.11854 | 5590 ft | 169 kts | 193° |
| 2026-05-04 23:53 | -16.75118 | -39.12267 | 5589 ft | 171 kts | 194° |
| 2026-05-04 23:53 | -16.76244 | -39.12679 | 5591 ft | 172 kts | 194° |
| 2026-05-04 23:53 | -16.77377 | -39.13095 | 5594 ft | 173 kts | 194° |
| 2026-05-04 23:54 | -16.78530 | -39.13518 | 5595 ft | 173 kts | 194° |
| 2026-05-04 23:54 | -16.79667 | -39.13933 | 5596 ft | 174 kts | 194° |
| 2026-05-04 23:54 | -16.80827 | -39.14357 | 5597 ft | 174 kts | 194° |
| 2026-05-04 23:54 | -16.81975 | -39.14778 | 5596 ft | 174 kts | 194° |
| 2026-05-04 23:55 | -16.83117 | -39.15196 | 5593 ft | 175 kts | 194° |
| 2026-05-04 23:55 | -16.84282 | -39.15623 | 5592 ft | 175 kts | 194° |
| 2026-05-04 23:55 | -16.86587 | -39.16468 | 5593 ft | 175 kts | 194° |
| 2026-05-04 23:56 | -16.87733 | -39.16887 | 5595 ft | 175 kts | 194° |
| 2026-05-04 23:56 | -16.88896 | -39.17312 | 5598 ft | 175 kts | 194° |
| 2026-05-04 23:56 | -16.90047 | -39.17734 | 5594 ft | 175 kts | 194° |
| 2026-05-04 23:56 | -16.91207 | -39.18160 | 5594 ft | 175 kts | 194° |
| 2026-05-04 23:57 | -16.92380 | -39.18591 | 5593 ft | 175 kts | 194° |
| 2026-05-04 23:57 | -16.93535 | -39.19014 | 5597 ft | 175 kts | 193° |
| 2026-05-04 23:57 | -16.94688 | -39.19436 | 5598 ft | 175 kts | 194° |
| 2026-05-04 23:57 | -16.95850 | -39.19862 | 5599 ft | 175 kts | 194° |
| 2026-05-04 23:58 | -16.97006 | -39.20285 | 5598 ft | 175 kts | 194° |
| 2026-05-04 23:58 | -16.98163 | -39.20709 | 5599 ft | 175 kts | 194° |
| 2026-05-04 23:58 | -16.99315 | -39.21131 | 5597 ft | 175 kts | 194° |
| 2026-05-04 23:58 | -17.00463 | -39.21554 | 5593 ft | 175 kts | 194° |
| 2026-05-04 23:59 | -17.01623 | -39.21978 | 5595 ft | 175 kts | 194° |
| 2026-05-04 23:59 | -17.02786 | -39.22405 | 5597 ft | 175 kts | 194° |
| 2026-05-04 23:59 | -17.03943 | -39.22829 | 5598 ft | 175 kts | 194° |
| 2026-05-04 23:59 | -17.05102 | -39.23255 | 5597 ft | 175 kts | 194° |
| 2026-05-05 00:00 | -17.06265 | -39.23681 | 5594 ft | 176 kts | 194° |
| 2026-05-05 00:00 | -17.06642 | -39.23821 | 5592 ft | 176 kts | 194° |
| 2026-05-05 00:00 | -17.08588 | -39.24534 | 5601 ft | 176 kts | 194° |
| 2026-05-05 00:00 | -17.09747 | -39.24960 | 5601 ft | 176 kts | 194° |
| 2026-05-05 00:01 | -17.10922 | -39.25391 | 5596 ft | 176 kts | 194° |
| 2026-05-05 00:01 | -17.12084 | -39.25817 | 5596 ft | 175 kts | 194° |
| 2026-05-05 00:01 | -17.13240 | -39.26242 | 5602 ft | 175 kts | 194° |
| 2026-05-05 00:01 | -17.14402 | -39.26669 | 5600 ft | 175 kts | 194° |
| 2026-05-05 00:02 | -17.15547 | -39.27089 | 5610 ft | 175 kts | 194° |
| 2026-05-05 00:02 | -17.16713 | -39.27518 | 5610 ft | 175 kts | 194° |
| 2026-05-05 00:02 | -17.17872 | -39.27945 | 5610 ft | 176 kts | 194° |
| 2026-05-05 00:02 | -17.19021 | -39.28367 | 5612 ft | 176 kts | 194° |
| 2026-05-05 00:03 | -17.20193 | -39.28798 | 5616 ft | 175 kts | 194° |
| 2026-05-05 00:03 | -17.21342 | -39.29220 | 5618 ft | 175 kts | 195° |
| 2026-05-05 00:03 | -17.22507 | -39.29647 | 5619 ft | 175 kts | 195° |
| 2026-05-05 00:03 | -17.23672 | -39.30077 | 5613 ft | 175 kts | 194° |
| 2026-05-05 00:04 | -17.24818 | -39.30497 | 5625 ft | 175 kts | 194° |
| 2026-05-05 00:04 | -17.25978 | -39.30925 | 5621 ft | 175 kts | 194° |
| 2026-05-05 00:04 | -17.27144 | -39.31352 | 5628 ft | 175 kts | 194° |
| 2026-05-05 00:04 | -17.28317 | -39.31785 | 5625 ft | 176 kts | 194° |
| 2026-05-05 00:05 | -17.29471 | -39.32210 | 5628 ft | 176 kts | 194° |
| 2026-05-05 00:05 | -17.30630 | -39.32636 | 5627 ft | 176 kts | 194° |
| 2026-05-05 00:05 | -17.31797 | -39.33065 | 5630 ft | 176 kts | 194° |
| 2026-05-05 00:05 | -17.32964 | -39.33495 | 5627 ft | 176 kts | 194° |
| 2026-05-05 00:06 | -17.34132 | -39.33925 | 5625 ft | 176 kts | 194° |
| 2026-05-05 00:06 | -17.35298 | -39.34355 | 5626 ft | 176 kts | 194° |
| 2026-05-05 00:06 | -17.36462 | -39.34784 | 5625 ft | 176 kts | 194° |
| 2026-05-05 00:06 | -17.37631 | -39.35216 | 5622 ft | 176 kts | 194° |
| 2026-05-05 00:07 | -17.38635 | -39.35594 | 5574 ft | 124 kts | 191° |
| 2026-05-05 00:07 | -17.39310 | -39.35855 | 5545 ft | 83 kts | 188° |
| 2026-05-05 00:07 | -17.39445 | -39.36280 | 4458 ft | 156 kts | 27° |
| 2026-05-05 00:07 | -17.38776 | -39.35664 | 3882 ft | 110 kts | 85° |
| 2026-05-05 00:08 | -17.39242 | -39.35686 | 3593 ft | 86 kts | 215° |
| 2026-05-05 00:08 | -17.39768 | -39.36244 | 2490 ft | 144 kts | 217° |
| 2026-05-05 00:08 | -17.40322 | -39.36943 | 2237 ft | 106 kts | 227° |
| 2026-05-05 00:08 | -17.40726 | -39.37291 | 2186 ft | 69 kts | 198° |
| 2026-05-05 00:09 | -17.40738 | -39.37851 | 1717 ft | 108 kts | 296° |
| 2026-05-05 00:09 | -17.40851 | -39.38386 | 1440 ft | 73 kts | 199° |
| 2026-05-05 00:09 | -17.41148 | -39.38840 | 1134 ft | 85 kts | 244° |
| 2026-05-05 00:09 | -17.41175 | -39.39417 | 904 ft | 89 kts | 286° |